createdAt,value
2022-12-25T00:01:43.532Z,15.12
2022-12-25T00:04:10.162Z,15.10
2022-12-25T00:06:37.071Z,15.10
2022-12-25T00:09:03.769Z,15.10
2022-12-25T00:11:30.404Z,15.09
2022-12-25T00:13:56.980Z,15.08
2022-12-25T00:16:25.374Z,15.08
2022-12-25T00:18:52.941Z,15.08
2022-12-25T00:21:20.668Z,15.07
2022-12-25T00:23:47.447Z,15.06
2022-12-25T00:26:17.696Z,15.06
2022-12-25T00:28:44.976Z,15.07
2022-12-25T00:31:16.735Z,15.06
2022-12-25T00:33:45.247Z,15.06
2022-12-25T00:36:13.679Z,15.06
2022-12-25T00:38:40.848Z,15.07
2022-12-25T00:41:09.689Z,15.07
2022-12-25T00:43:36.664Z,15.08
2022-12-25T00:46:05.241Z,15.07
2022-12-25T00:48:32.620Z,15.09
2022-12-25T00:51:02.129Z,15.11
2022-12-25T00:53:29.893Z,15.12
2022-12-25T00:55:58.869Z,15.12
2022-12-25T00:58:26.214Z,15.12
2022-12-25T01:00:52.812Z,15.12
2022-12-25T01:03:19.561Z,15.10
2022-12-25T01:05:58.315Z,15.10
2022-12-25T01:08:25.205Z,15.10
2022-12-25T01:10:59.391Z,15.10
2022-12-25T01:13:26.393Z,15.11
2022-12-25T01:15:54.292Z,15.10
2022-12-25T01:18:22.511Z,15.10
2022-12-25T01:20:49.154Z,15.10
2022-12-25T01:23:15.929Z,15.08
2022-12-25T01:25:42.582Z,15.10
2022-12-25T01:28:09.195Z,15.10
2022-12-25T01:30:35.748Z,15.11
2022-12-25T01:33:02.383Z,15.07
2022-12-25T01:35:28.970Z,15.07
2022-12-25T01:37:55.593Z,15.07
2022-12-25T01:40:22.342Z,15.07
2022-12-25T01:42:48.894Z,15.07
2022-12-25T01:45:30.766Z,15.07
2022-12-25T01:47:57.996Z,15.04
2022-12-25T01:50:24.782Z,15.03
2022-12-25T01:52:51.966Z,15.03
2022-12-25T01:55:18.539Z,15.03
2022-12-25T01:57:45.570Z,15.05
2022-12-25T02:00:13.149Z,15.06
2022-12-25T02:02:40.951Z,15.07
2022-12-25T02:05:33.950Z,15.07
2022-12-25T02:08:12.776Z,15.08
2022-12-25T02:10:39.345Z,15.07
2022-12-25T02:13:07.043Z,15.10
2022-12-25T02:15:48.369Z,15.11
2022-12-25T02:18:32.036Z,15.10
2022-12-25T02:21:09.760Z,15.10
2022-12-25T02:23:48.960Z,15.10
2022-12-25T02:26:45.218Z,15.08
2022-12-25T02:29:23.339Z,15.07
2022-12-25T02:32:21.988Z,15.08
2022-12-25T02:35:14.511Z,15.07
2022-12-25T02:37:56.891Z,15.06
2022-12-25T02:40:30.813Z,15.06
2022-12-25T02:43:20.049Z,15.06
2022-12-25T02:46:18.008Z,15.06
2022-12-25T02:49:16.301Z,15.06
2022-12-25T02:52:12.560Z,15.05
2022-12-25T02:55:07.382Z,15.05
2022-12-25T02:58:06.490Z,15.02
2022-12-25T03:00:54.534Z,15.02
2022-12-25T03:03:41.368Z,15.03
2022-12-25T03:06:27.182Z,15.01
2022-12-25T03:09:15.869Z,15.01
2022-12-25T03:11:44.115Z,15.03
2022-12-25T03:14:29.228Z,15.02
2022-12-25T03:16:57.381Z,15.02
2022-12-25T03:19:45.133Z,15.05
2022-12-25T03:22:50.367Z,15.07
2022-12-25T03:25:36.543Z,15.06
2022-12-25T03:28:04.061Z,15.07
2022-12-25T03:31:06.922Z,15.07
2022-12-25T03:34:23.145Z,15.07
2022-12-25T03:37:25.366Z,15.07
2022-12-25T03:40:22.099Z,15.07
2022-12-25T03:43:12.752Z,15.07
2022-12-25T03:46:05.035Z,15.07
2022-12-25T03:48:52.607Z,15.07
2022-12-25T03:51:41.324Z,15.06
2022-12-25T03:54:27.982Z,15.06
2022-12-25T03:57:14.224Z,15.05
2022-12-25T03:59:59.445Z,15.03
2022-12-25T04:02:45.035Z,15.05
2022-12-25T04:05:30.333Z,15.03
2022-12-25T04:08:15.756Z,15.02
2022-12-25T04:11:00.924Z,15.03
2022-12-25T04:13:46.045Z,15.01
2022-12-25T04:16:31.691Z,15.01
2022-12-25T04:19:17.054Z,14.99
2022-12-25T04:22:02.188Z,15.01
2022-12-25T04:24:47.499Z,14.98
2022-12-25T04:27:32.742Z,14.99
2022-12-25T04:30:18.007Z,14.99
2022-12-25T04:33:03.277Z,14.98
2022-12-25T04:35:48.641Z,14.98
2022-12-25T04:38:15.216Z,14.98
2022-12-25T04:40:41.768Z,15.01
2022-12-25T04:43:08.378Z,15.00
2022-12-25T04:45:34.927Z,15.02
2022-12-25T04:48:01.507Z,15.02
2022-12-25T04:50:28.112Z,15.03
2022-12-25T04:52:54.742Z,15.03
2022-12-25T04:55:21.353Z,15.03
2022-12-25T04:57:48.032Z,15.02
2022-12-25T05:00:14.997Z,15.03
2022-12-25T05:02:41.709Z,15.03
2022-12-25T05:05:08.527Z,15.03
2022-12-25T05:07:35.126Z,15.05
2022-12-25T05:10:01.793Z,15.03
2022-12-25T05:12:28.392Z,15.04
2022-12-25T05:14:55.019Z,15.03
2022-12-25T05:17:21.612Z,15.02
2022-12-25T05:19:48.184Z,15.02
2022-12-25T05:22:14.849Z,15.01
2022-12-25T05:24:41.389Z,15.02
2022-12-25T05:27:08.025Z,15.01
2022-12-25T05:29:34.547Z,15.01
2022-12-25T05:32:02.151Z,15.00
2022-12-25T05:34:28.721Z,14.99
2022-12-25T05:36:56.633Z,14.98
2022-12-25T05:39:23.787Z,14.99
2022-12-25T05:41:50.359Z,14.98
2022-12-25T05:44:16.991Z,14.98
2022-12-25T05:46:43.604Z,14.98
2022-12-25T05:49:10.407Z,14.97
2022-12-25T05:51:37.010Z,14.96
2022-12-25T05:54:03.793Z,14.97
2022-12-25T05:56:30.381Z,14.95
2022-12-25T05:58:56.958Z,14.96
2022-12-25T06:01:27.384Z,14.98
2022-12-25T06:03:54.348Z,14.98
2022-12-25T06:06:20.995Z,14.99
2022-12-25T06:08:47.605Z,14.99
2022-12-25T06:11:15.098Z,15.00
2022-12-25T06:13:41.797Z,15.01
2022-12-25T06:16:10.086Z,15.02
2022-12-25T06:18:42.408Z,15.00
2022-12-25T06:21:11.370Z,14.99
2022-12-25T06:23:38.744Z,15.00
2022-12-25T06:26:11.598Z,14.98
2022-12-25T06:28:38.326Z,14.98
2022-12-25T06:31:11.839Z,14.97
2022-12-25T06:33:38.795Z,14.97
2022-12-25T06:36:11.362Z,14.97
2022-12-25T06:38:38.264Z,14.96
2022-12-25T06:41:10.407Z,14.97
2022-12-25T06:43:37.778Z,14.94
2022-12-25T06:46:09.888Z,14.94
2022-12-25T06:48:37.889Z,14.94
2022-12-25T06:51:05.686Z,14.93
2022-12-25T06:53:39.830Z,14.94
2022-12-25T06:56:09.174Z,14.94
2022-12-25T06:58:35.799Z,14.94
2022-12-25T07:01:15.151Z,14.92
2022-12-25T07:03:43.568Z,14.93
2022-12-25T07:06:10.167Z,14.93
2022-12-25T07:08:36.864Z,14.93
2022-12-25T07:11:03.566Z,14.93
2022-12-25T07:13:30.414Z,14.95
2022-12-25T07:15:58.465Z,14.95
2022-12-25T07:18:25.597Z,14.95
2022-12-25T07:20:52.262Z,14.96
2022-12-25T07:23:18.887Z,14.96
2022-12-25T07:25:53.679Z,14.95
2022-12-25T07:28:20.273Z,14.97
2022-12-25T07:30:47.168Z,14.97
2022-12-25T07:33:13.786Z,14.97
2022-12-25T07:35:40.703Z,14.97
2022-12-25T07:38:07.344Z,14.95
2022-12-25T07:40:33.942Z,14.95
2022-12-25T07:43:00.531Z,14.97
2022-12-25T07:45:27.211Z,14.98
2022-12-25T07:47:55.204Z,14.96
2022-12-25T07:50:22.049Z,14.96
2022-12-25T07:52:48.697Z,14.94
2022-12-25T07:55:15.274Z,14.93
2022-12-25T07:57:41.860Z,14.93
2022-12-25T08:00:09.567Z,14.94
2022-12-25T08:02:36.250Z,14.93
2022-12-25T08:05:03.035Z,14.92
2022-12-25T08:07:29.605Z,14.91
2022-12-25T08:09:56.168Z,14.91
2022-12-25T08:12:22.762Z,14.92
2022-12-25T08:14:49.340Z,14.90
2022-12-25T08:17:15.949Z,14.90
2022-12-25T08:19:42.617Z,14.88
2022-12-25T08:22:09.189Z,14.89
2022-12-25T08:24:35.786Z,14.88
2022-12-25T08:27:03.265Z,14.89
2022-12-25T08:29:29.984Z,14.88
2022-12-25T08:31:57.051Z,14.89
2022-12-25T08:34:23.629Z,14.90
2022-12-25T08:36:50.200Z,14.91
2022-12-25T08:39:16.789Z,14.92
2022-12-25T08:41:43.417Z,14.93
2022-12-25T08:44:13.541Z,14.94
2022-12-25T08:46:40.564Z,14.95
2022-12-25T08:49:07.239Z,14.97
2022-12-25T08:51:34.318Z,14.95
2022-12-25T08:54:01.229Z,14.97
2022-12-25T08:56:28.216Z,14.98
2022-12-25T08:58:54.831Z,14.97
2022-12-25T09:01:21.497Z,14.97
2022-12-25T09:03:48.253Z,14.97
2022-12-25T09:06:16.404Z,14.97
2022-12-25T09:08:48.789Z,14.97
2022-12-25T09:11:17.130Z,14.96
2022-12-25T09:13:43.824Z,14.95
2022-12-25T09:16:12.836Z,14.93
2022-12-25T09:18:39.549Z,14.93
2022-12-25T09:21:08.046Z,14.94
2022-12-25T09:23:34.723Z,14.93
2022-12-25T09:26:02.954Z,14.92
2022-12-25T09:28:29.757Z,14.93
2022-12-25T09:30:56.795Z,14.94
2022-12-25T09:33:23.506Z,14.93
2022-12-25T09:36:02.988Z,14.92
2022-12-25T09:38:30.422Z,14.93
2022-12-25T09:41:09.092Z,14.92
2022-12-25T09:43:42.644Z,14.93
2022-12-25T09:46:15.538Z,14.93
2022-12-25T09:48:47.982Z,14.93
2022-12-25T09:51:16.786Z,14.92
2022-12-25T09:53:52.043Z,14.93
2022-12-25T09:56:25.624Z,14.94
2022-12-25T09:58:53.303Z,14.95
2022-12-25T10:01:43.262Z,14.97
2022-12-25T10:04:39.084Z,14.97
2022-12-25T10:07:36.029Z,14.97
2022-12-25T10:10:11.596Z,14.96
2022-12-25T10:12:44.091Z,14.97
2022-12-25T10:15:19.080Z,14.98
2022-12-25T10:17:51.907Z,14.98
2022-12-25T10:20:35.178Z,14.98
2022-12-25T10:23:04.318Z,14.98
2022-12-25T10:25:30.949Z,14.98
2022-12-25T10:28:09.959Z,14.98
2022-12-25T10:30:36.682Z,14.97
2022-12-25T10:33:03.332Z,14.97
2022-12-25T10:35:31.488Z,14.98
2022-12-25T10:38:15.885Z,14.97
2022-12-25T10:41:19.775Z,14.97
2022-12-25T10:43:54.203Z,14.98
2022-12-25T10:46:22.453Z,14.98
2022-12-25T10:48:59.073Z,14.98
2022-12-25T10:51:31.250Z,14.97
2022-12-25T10:53:58.002Z,14.96
2022-12-25T10:56:24.659Z,14.97
2022-12-25T10:58:51.296Z,14.98
2022-12-25T11:01:18.048Z,14.98
2022-12-25T11:03:47.424Z,14.98
2022-12-25T11:06:29.326Z,14.98
2022-12-25T11:08:57.961Z,14.98
2022-12-25T11:11:25.182Z,14.99
2022-12-25T11:13:56.816Z,14.97
2022-12-25T11:16:28.436Z,14.99
2022-12-25T11:18:55.474Z,15.01
2022-12-25T11:21:23.617Z,15.02
2022-12-25T11:23:58.341Z,15.02
2022-12-25T11:26:25.386Z,15.00
2022-12-25T11:28:52.508Z,15.01
2022-12-25T11:31:36.853Z,15.02
2022-12-25T11:34:12.141Z,14.99
2022-12-25T11:36:48.969Z,14.99
2022-12-25T11:39:26.992Z,14.99
2022-12-25T11:41:56.996Z,14.99
2022-12-25T11:44:51.323Z,14.99
2022-12-25T11:47:28.407Z,14.98
2022-12-25T11:50:01.056Z,14.98
2022-12-25T11:52:30.430Z,14.97
2022-12-25T11:55:29.446Z,14.97
2022-12-25T11:57:59.992Z,14.95
2022-12-25T12:00:27.719Z,14.94
2022-12-25T12:03:13.881Z,14.94
2022-12-25T12:06:19.399Z,14.93
2022-12-25T12:08:48.049Z,14.91
2022-12-25T12:11:28.067Z,14.91
2022-12-25T12:14:20.248Z,14.92
2022-12-25T12:16:46.867Z,14.91
2022-12-25T12:19:23.524Z,14.93
2022-12-25T12:21:50.379Z,14.92
2022-12-25T12:24:21.977Z,14.92
2022-12-25T12:27:07.130Z,14.92
2022-12-25T12:29:44.610Z,14.94
2022-12-25T12:32:24.488Z,14.94
2022-12-25T12:34:51.093Z,14.95
2022-12-25T12:37:25.569Z,14.96
2022-12-25T12:39:54.279Z,14.98
2022-12-25T12:42:25.972Z,14.98
2022-12-25T12:44:54.912Z,14.98
2022-12-25T12:47:38.124Z,14.98
2022-12-25T12:50:05.659Z,14.98
2022-12-25T12:52:37.743Z,14.98
2022-12-25T12:55:07.297Z,14.97
2022-12-25T12:57:39.587Z,14.97
2022-12-25T13:00:11.179Z,14.94
2022-12-25T13:02:55.909Z,14.95
2022-12-25T13:05:42.451Z,14.94
2022-12-25T13:08:33.829Z,14.94
2022-12-25T13:11:18.687Z,14.94
2022-12-25T13:13:46.143Z,14.93
2022-12-25T13:16:25.031Z,14.90
2022-12-25T13:18:53.015Z,14.93
2022-12-25T13:21:25.997Z,14.92
2022-12-25T13:24:01.105Z,14.90
2022-12-25T13:26:28.367Z,14.89
2022-12-25T13:28:56.205Z,14.88
2022-12-25T13:31:26.389Z,14.88
2022-12-25T13:33:58.266Z,14.86
2022-12-25T13:36:26.683Z,14.87
2022-12-25T13:38:55.769Z,14.88
2022-12-25T13:41:46.278Z,14.88
2022-12-25T13:44:24.821Z,14.88
2022-12-25T13:46:51.473Z,14.89
2022-12-25T13:49:23.076Z,14.90
2022-12-25T13:51:50.565Z,14.90
2022-12-25T13:54:18.108Z,14.90
2022-12-25T13:56:51.001Z,14.90
2022-12-25T13:59:20.030Z,14.92
2022-12-25T14:01:48.758Z,14.92
2022-12-25T14:04:17.911Z,14.92
2022-12-25T14:06:44.550Z,14.92
2022-12-25T14:09:12.551Z,14.91
2022-12-25T14:11:40.793Z,14.91
2022-12-25T14:14:22.425Z,14.91
2022-12-25T14:16:50.490Z,14.91
2022-12-25T14:19:31.584Z,14.90
2022-12-25T14:22:01.543Z,14.92
2022-12-25T14:24:30.263Z,14.92
2022-12-25T14:27:02.122Z,14.90
2022-12-25T14:29:37.017Z,14.90
2022-12-25T14:32:05.867Z,14.92
2022-12-25T14:34:32.978Z,14.90
2022-12-25T14:37:00.663Z,14.88
2022-12-25T14:39:36.499Z,14.90
2022-12-25T14:42:20.647Z,14.87
2022-12-25T14:45:22.234Z,14.88
2022-12-25T14:47:53.658Z,14.88
2022-12-25T14:50:38.592Z,14.86
2022-12-25T14:53:07.084Z,14.86
2022-12-25T14:55:33.769Z,14.86
2022-12-25T14:58:04.616Z,14.86
2022-12-25T15:00:35.448Z,14.88
2022-12-25T15:03:05.060Z,14.88
2022-12-25T15:05:37.628Z,14.89
2022-12-25T15:08:13.155Z,14.90
2022-12-25T15:13:28.019Z,14.90
2022-12-25T15:15:58.791Z,14.91
2022-12-25T15:18:28.184Z,14.91
2022-12-25T15:20:56.256Z,14.88
2022-12-25T15:23:22.962Z,14.85
2022-12-25T15:25:51.097Z,14.88
2022-12-25T15:28:18.122Z,14.88
2022-12-25T15:30:44.734Z,14.88
2022-12-25T15:33:15.889Z,14.89
2022-12-25T15:35:44.375Z,14.89
2022-12-25T15:38:12.739Z,14.88
2022-12-25T15:40:40.295Z,14.88
2022-12-25T15:43:14.639Z,14.88
2022-12-25T15:45:49.024Z,14.85
2022-12-25T15:48:15.596Z,14.86
2022-12-25T15:50:42.741Z,14.86
2022-12-25T15:53:10.855Z,14.85
2022-12-25T15:55:37.734Z,14.84
2022-12-25T15:58:04.407Z,14.84
2022-12-25T16:00:31.001Z,14.83
2022-12-25T16:02:57.686Z,14.85
2022-12-25T16:05:24.933Z,14.82
2022-12-25T16:07:51.501Z,14.83
2022-12-25T16:10:19.733Z,14.85
2022-12-25T16:12:46.652Z,14.86
2022-12-25T16:15:14.420Z,14.86
2022-12-25T16:17:41.061Z,14.88
2022-12-25T16:20:08.724Z,14.89
2022-12-25T16:22:39.960Z,14.90
2022-12-25T16:25:18.372Z,14.89
2022-12-25T16:27:45.167Z,14.92
2022-12-25T16:30:15.046Z,14.92
2022-12-25T16:32:45.313Z,14.92
2022-12-25T16:35:12.168Z,14.92
2022-12-25T16:37:39.051Z,14.90
2022-12-25T16:40:07.539Z,14.90
2022-12-25T16:42:34.112Z,14.89
2022-12-25T16:45:00.816Z,14.90
2022-12-25T16:47:27.426Z,14.90
2022-12-25T16:49:54.077Z,14.90
2022-12-25T16:52:20.654Z,14.88
2022-12-25T16:54:47.233Z,14.88
2022-12-25T16:57:14.400Z,14.88
2022-12-25T16:59:41.717Z,14.86
2022-12-25T17:02:11.673Z,14.88
2022-12-25T17:04:39.387Z,14.86
2022-12-25T17:07:05.958Z,14.85
2022-12-25T17:09:32.543Z,14.84
2022-12-25T17:11:59.139Z,14.84
2022-12-25T17:14:25.756Z,14.84
2022-12-25T17:16:52.488Z,14.82
2022-12-25T17:19:21.183Z,14.82
2022-12-25T17:21:47.960Z,14.83
2022-12-25T17:24:15.136Z,14.84
2022-12-25T17:26:43.879Z,14.85
2022-12-25T17:29:11.756Z,14.85
2022-12-25T17:31:40.638Z,14.88
2022-12-25T17:34:09.024Z,14.87
2022-12-25T17:36:36.187Z,14.89
2022-12-25T17:39:05.127Z,14.89
2022-12-25T17:41:32.561Z,14.90
2022-12-25T17:43:59.201Z,14.90
2022-12-25T17:46:27.945Z,14.90
2022-12-25T17:48:56.716Z,14.88
2022-12-25T17:51:25.453Z,14.89
2022-12-25T17:53:55.188Z,14.90
2022-12-25T17:56:22.973Z,14.89
2022-12-25T17:58:51.633Z,14.89
2022-12-25T18:01:18.855Z,14.90
2022-12-25T18:03:46.081Z,14.89
2022-12-25T18:06:15.984Z,14.89
2022-12-25T18:08:43.926Z,14.88
2022-12-25T18:11:15.261Z,14.90
2022-12-25T18:13:44.811Z,14.88
2022-12-25T18:16:12.843Z,14.88
2022-12-25T18:18:39.718Z,14.90
2022-12-25T18:21:06.814Z,14.89
2022-12-25T18:23:33.720Z,14.88
2022-12-25T18:26:05.077Z,14.88
2022-12-25T18:28:32.007Z,14.87
2022-12-25T18:30:59.147Z,14.88
2022-12-25T18:33:26.064Z,14.86
2022-12-25T18:35:58.346Z,14.86
2022-12-25T18:38:24.998Z,14.86
2022-12-25T18:40:51.706Z,14.85
2022-12-25T18:43:18.277Z,14.87
2022-12-25T18:45:45.105Z,14.88
2022-12-25T18:48:11.842Z,14.88
2022-12-25T18:50:40.369Z,14.89
2022-12-25T18:53:07.196Z,14.89
2022-12-25T18:55:33.866Z,14.91
2022-12-25T18:58:00.440Z,14.90
2022-12-25T19:00:28.100Z,14.91
2022-12-25T19:02:58.943Z,14.93
2022-12-25T19:05:25.999Z,14.92
2022-12-25T19:07:52.584Z,14.92
2022-12-25T19:10:19.432Z,14.92
2022-12-25T19:12:46.047Z,14.91
2022-12-25T19:15:12.772Z,14.89
2022-12-25T19:17:39.394Z,14.90
2022-12-25T19:20:06.559Z,14.90
2022-12-25T19:22:33.154Z,14.89
2022-12-25T19:24:59.723Z,14.89
2022-12-25T19:27:26.297Z,14.89
2022-12-25T19:29:52.864Z,14.88
2022-12-25T19:32:19.481Z,14.87
2022-12-25T19:34:46.111Z,14.87
2022-12-25T19:37:12.772Z,14.87
2022-12-25T19:39:41.250Z,14.87
2022-12-25T19:42:07.832Z,14.86
2022-12-25T19:44:34.829Z,14.85
2022-12-25T19:47:01.402Z,14.85
2022-12-25T19:49:27.979Z,14.86
2022-12-25T19:51:54.536Z,14.86
2022-12-25T19:54:21.165Z,14.86
2022-12-25T19:56:49.274Z,14.87
2022-12-25T19:59:15.871Z,14.88
2022-12-25T20:01:42.905Z,14.90
2022-12-25T20:04:10.399Z,14.91
2022-12-25T20:06:40.342Z,14.92
2022-12-25T20:09:15.059Z,14.93
2022-12-25T20:11:43.173Z,14.93
2022-12-25T20:14:12.734Z,14.93
2022-12-25T20:16:40.270Z,14.94
2022-12-25T20:19:07.434Z,14.94
2022-12-25T20:21:34.294Z,14.93
2022-12-25T20:24:01.048Z,14.94
2022-12-25T20:26:30.661Z,14.94
2022-12-25T20:28:58.457Z,14.94
2022-12-25T20:31:30.846Z,14.93
2022-12-25T20:33:59.545Z,14.93
2022-12-25T20:36:29.652Z,14.93
2022-12-25T20:38:59.360Z,14.92
2022-12-25T20:41:27.881Z,14.90
2022-12-25T20:43:55.686Z,14.90
2022-12-25T20:46:22.554Z,14.91
2022-12-25T20:48:49.385Z,14.89
2022-12-25T20:51:18.486Z,14.90
2022-12-25T20:53:45.970Z,14.89
2022-12-25T20:56:14.129Z,14.88
2022-12-25T20:58:41.066Z,14.88
2022-12-25T21:01:10.194Z,14.88
2022-12-25T21:03:37.012Z,14.88
2022-12-25T21:06:03.780Z,14.87
2022-12-25T21:08:30.701Z,14.87
2022-12-25T21:11:00.873Z,14.88
2022-12-25T21:13:36.079Z,14.88
2022-12-25T21:16:05.612Z,14.89
2022-12-25T21:18:32.359Z,14.91
2022-12-25T21:20:59.644Z,14.90
2022-12-25T21:23:28.980Z,14.92
2022-12-25T21:25:55.561Z,14.93
2022-12-25T21:28:23.291Z,14.93
2022-12-25T21:30:50.076Z,14.93
2022-12-25T21:33:35.202Z,14.93
2022-12-25T21:36:09.414Z,14.93
2022-12-25T21:38:36.294Z,14.94
2022-12-25T21:41:07.696Z,14.94
2022-12-25T21:43:35.008Z,14.94
2022-12-25T21:46:05.532Z,14.93
2022-12-25T21:48:33.313Z,14.94
2022-12-25T21:51:27.426Z,14.93
2022-12-25T21:53:54.128Z,14.93
2022-12-25T21:56:20.679Z,14.93
2022-12-25T21:58:47.329Z,14.93
2022-12-25T22:01:16.848Z,14.93
2022-12-25T22:03:44.284Z,14.94
2022-12-25T22:06:44.265Z,14.93
2022-12-25T22:09:10.886Z,14.93
2022-12-25T22:11:55.995Z,14.93
2022-12-25T22:14:52.904Z,14.93
2022-12-25T22:17:47.030Z,14.90
2022-12-25T22:20:18.505Z,14.90
2022-12-25T22:22:45.203Z,14.90
2022-12-25T22:25:12.393Z,14.92
2022-12-25T22:27:39.900Z,14.90
2022-12-25T22:30:08.857Z,14.90
2022-12-25T22:32:35.486Z,14.92
2022-12-25T22:35:02.387Z,14.93
2022-12-25T22:37:29.036Z,14.93
2022-12-25T22:39:55.638Z,14.93
2022-12-25T22:42:22.314Z,14.93
2022-12-25T22:44:49.198Z,14.95
2022-12-25T22:47:15.845Z,14.95
2022-12-25T22:49:42.444Z,14.95
2022-12-25T22:52:09.916Z,14.97
2022-12-25T22:54:37.324Z,14.96
2022-12-25T22:57:04.495Z,14.96
2022-12-25T22:59:32.730Z,14.94
2022-12-25T23:01:59.503Z,14.94
2022-12-25T23:04:26.268Z,14.94
2022-12-25T23:06:52.854Z,14.95
2022-12-25T23:09:24.845Z,14.95
2022-12-25T23:11:51.581Z,14.93
2022-12-25T23:14:36.831Z,14.93
2022-12-25T23:17:03.549Z,14.93
2022-12-25T23:19:48.711Z,14.93
2022-12-25T23:22:34.459Z,14.92
2022-12-25T23:25:19.867Z,14.93
2022-12-25T23:27:46.513Z,14.91
2022-12-25T23:30:16.993Z,14.92
2022-12-25T23:32:44.135Z,14.93
2022-12-25T23:35:11.450Z,14.91
2022-12-25T23:37:38.084Z,14.92
2022-12-25T23:40:05.323Z,14.91
2022-12-25T23:42:31.985Z,14.93
2022-12-25T23:44:58.566Z,14.93
2022-12-25T23:47:25.157Z,14.93
2022-12-25T23:49:51.751Z,14.94
2022-12-25T23:52:18.340Z,14.95
2022-12-25T23:54:44.907Z,14.97
2022-12-25T23:57:11.532Z,14.98
2022-12-25T23:59:38.162Z,14.98
